Time,TemperatureF,DewpointF,PressureIn,WindDirection,WindDirectionDegrees,WindSpeedMPH,WindSpeedGustMPH,Humidity,HourlyPrecipIn,Conditions,Clouds,dailyrainin,SoftwareType,DateUTC
2013-06-29 00:04:00,60.3,54.7,30.23,SE,132,0.0,2.0,82,0.00,,,0.07,meteohub,2013-06-29 07:04:00,
2013-06-29 00:09:00,60.1,54.9,30.22,SSE,165,0.0,2.0,83,0.00,,,0.07,meteohub,2013-06-29 07:09:00,
2013-06-29 00:14:00,59.9,54.7,30.22,SE,134,0.0,1.0,83,0.00,,,0.07,meteohub,2013-06-29 07:14:00,
2013-06-29 00:19:00,59.9,54.3,30.22,SE,138,0.0,1.0,82,0.00,,,0.07,meteohub,2013-06-29 07:19:00,
2013-06-29 00:24:00,60.1,54.3,30.22,SE,138,0.0,1.0,81,0.00,,,0.07,meteohub,2013-06-29 07:24:00,
2013-06-29 00:29:00,59.9,54.7,30.23,NE,51,0.0,1.0,83,0.00,,,0.07,meteohub,2013-06-29 07:29:00,
2013-06-29 00:34:00,59.7,54.0,30.23,ENE,71,0.0,2.0,81,0.00,,,0.07,meteohub,2013-06-29 07:34:00,
2013-06-29 00:39:00,59.5,53.8,30.23,ENE,71,0.0,2.0,81,0.00,,,0.07,meteohub,2013-06-29 07:39:00,
2013-06-29 00:44:00,59.5,53.8,30.23,East,98,0.0,2.0,81,0.00,,,0.07,meteohub,2013-06-29 07:44:00,
2013-06-29 00:49:00,59.4,53.8,30.22,ESE,104,1.0,1.0,82,0.00,,,0.07,meteohub,2013-06-29 07:49:00,
2013-06-29 00:54:00,59.2,53.6,30.22,SSE,160,0.0,1.0,82,0.00,,,0.07,meteohub,2013-06-29 07:54:00,
2013-06-29 00:59:00,59.2,53.6,30.22,SSE,161,0.0,1.0,82,0.00,,,0.07,meteohub,2013-06-29 07:59:00,
2013-06-29 01:04:00,58.8,53.4,30.22,SE,144,0.0,1.0,82,0.00,,,0.07,meteohub,2013-06-29 08:04:00,
2013-06-29 01:10:00,58.6,53.2,30.22,SSE,154,0.0,1.0,82,0.00,,,0.07,meteohub,2013-06-29 08:10:00,
2013-06-29 01:15:00,58.5,53.2,30.22,SSE,154,0.0,1.0,83,0.00,,,0.07,meteohub,2013-06-29 08:15:00,
2013-06-29 01:20:00,58.3,53.1,30.22,SSE,153,0.0,1.0,83,0.00,,,0.07,meteohub,2013-06-29 08:20:00,
2013-06-29 01:25:00,57.9,52.7,30.22,SSE,153,0.0,1.0,83,0.00,,,0.07,meteohub,2013-06-29 08:25:00,
2013-06-29 01:30:00,57.7,52.9,30.22,SSE,153,0.0,0.0,84,0.00,,,0.07,meteohub,2013-06-29 08:30:00,
2013-06-29 01:35:00,57.7,52.7,30.22,SSE,154,0.0,0.0,83,0.00,,,0.07,meteohub,2013-06-29 08:35:00,
2013-06-29 01:40:00,57.6,52.7,30.22,SSE,153,0.0,0.0,84,0.00,,,0.07,meteohub,2013-06-29 08:40:00,
2013-06-29 01:45:00,57.4,52.3,30.22,SSE,153,0.0,0.0,83,0.00,,,0.07,meteohub,2013-06-29 08:45:00,
2013-06-29 01:50:00,57.2,52.3,30.22,SSE,153,0.0,0.0,84,0.00,,,0.07,meteohub,2013-06-29 08:50:00,
2013-06-29 01:55:00,57.0,52.2,30.22,SSE,153,0.0,0.0,84,0.00,,,0.07,meteohub,2013-06-29 08:55:00,
2013-06-29 02:00:00,56.8,52.3,30.22,SSE,154,0.0,0.0,85,0.00,,,0.07,meteohub,2013-06-29 09:00:00,
2013-06-29 02:05:00,56.7,52.2,30.22,SSE,153,0.0,0.0,85,0.00,,,0.07,meteohub,2013-06-29 09:05:00,
2013-06-29 02:10:00,56.5,52.3,30.22,SSE,148,0.0,0.0,86,0.00,,,0.07,meteohub,2013-06-29 09:10:00,
2013-06-29 02:15:00,56.5,52.3,30.22,SSE,160,0.0,0.0,86,0.00,,,0.07,meteohub,2013-06-29 09:15:00,
2013-06-29 02:20:00,56.3,52.2,30.22,SSE,161,0.0,0.0,86,0.00,,,0.07,meteohub,2013-06-29 09:20:00,
2013-06-29 02:25:00,56.1,52.3,30.22,SSE,160,0.0,0.0,87,0.00,,,0.07,meteohub,2013-06-29 09:25:00,
2013-06-29 02:30:00,56.1,52.3,30.22,SSE,160,0.0,0.0,87,0.00,,,0.07,meteohub,2013-06-29 09:30:00,
2013-06-29 02:35:00,55.9,52.2,30.22,SSE,156,2.0,2.0,87,0.00,,,0.07,meteohub,2013-06-29 09:35:00,
2013-06-29 02:40:00,55.8,52.0,30.22,SE,145,0.0,2.0,87,0.00,,,0.07,meteohub,2013-06-29 09:40:00,
2013-06-29 02:45:00,55.6,52.2,30.22,South,180,0.0,2.0,88,0.00,,,0.07,meteohub,2013-06-29 09:45:00,
2013-06-29 02:50:00,55.6,52.2,30.22,SSE,150,2.0,2.0,88,0.00,,,0.07,meteohub,2013-06-29 09:50:00,
2013-06-29 02:55:00,55.4,52.0,30.22,South,169,0.0,2.0,88,0.00,,,0.07,meteohub,2013-06-29 09:55:00,
2013-06-29 03:00:00,55.2,51.8,30.22,SSW,199,0.0,2.0,88,0.00,,,0.07,meteohub,2013-06-29 10:00:00,
2013-06-29 03:05:00,55.2,51.8,30.22,SSW,196,0.0,2.0,88,0.00,,,0.07,meteohub,2013-06-29 10:05:00,
2013-06-29 03:10:00,55.0,51.6,30.22,SSE,152,1.0,2.0,88,0.00,,,0.07,meteohub,2013-06-29 10:10:00,
2013-06-29 03:15:00,55.0,51.8,30.22,South,188,0.0,2.0,89,0.00,,,0.07,meteohub,2013-06-29 10:15:00,
2013-06-29 03:20:00,55.0,51.8,30.22,SSE,162,0.0,2.0,89,0.00,,,0.07,meteohub,2013-06-29 10:20:00,
2013-06-29 03:26:00,55.0,51.8,30.22,SSE,158,0.0,2.0,89,0.00,,,0.07,meteohub,2013-06-29 10:26:00,
2013-06-29 03:31:00,55.0,51.8,30.22,SSE,154,0.0,1.0,89,0.00,,,0.07,meteohub,2013-06-29 10:31:00,
2013-06-29 03:36:00,55.0,51.6,30.22,South,171,0.0,1.0,88,0.00,,,0.07,meteohub,2013-06-29 10:36:00,
2013-06-29 03:41:00,55.0,51.6,30.22,SSE,148,1.0,1.0,88,0.00,,,0.07,meteohub,2013-06-29 10:41:00,
2013-06-29 03:46:00,55.0,51.8,30.22,SSE,152,0.0,1.0,89,0.00,,,0.07,meteohub,2013-06-29 10:46:00,
2013-06-29 03:51:00,55.0,51.6,30.22,SSE,149,2.0,2.0,88,0.00,,,0.07,meteohub,2013-06-29 10:51:00,
2013-06-29 03:56:00,54.9,51.4,30.22,South,180,0.0,2.0,88,0.00,,,0.07,meteohub,2013-06-29 10:56:00,
2013-06-29 04:01:00,54.9,51.4,30.22,SSE,163,0.0,2.0,88,0.00,,,0.07,meteohub,2013-06-29 11:01:00,
2013-06-29 04:06:00,54.9,51.4,30.22,SSE,155,0.0,2.0,88,0.00,,,0.07,meteohub,2013-06-29 11:06:00,
2013-06-29 04:11:00,54.9,51.4,30.22,SSE,152,0.0,1.0,88,0.00,,,0.07,meteohub,2013-06-29 11:11:00,
2013-06-29 04:16:00,54.7,51.3,30.22,South,169,0.0,0.0,88,0.00,,,0.07,meteohub,2013-06-29 11:16:00,
2013-06-29 04:21:00,54.5,51.1,30.22,SSE,150,0.0,1.0,88,0.00,,,0.07,meteohub,2013-06-29 11:21:00,
2013-06-29 04:26:00,54.3,50.9,30.22,SSE,150,0.0,1.0,88,0.00,,,0.07,meteohub,2013-06-29 11:26:00,
2013-06-29 04:31:00,54.3,50.9,30.22,SSE,150,0.0,1.0,88,0.00,,,0.07,meteohub,2013-06-29 11:31:00,
2013-06-29 04:36:00,54.5,51.1,30.22,SE,125,0.0,1.0,88,0.00,,,0.07,meteohub,2013-06-29 11:36:00,
2013-06-29 04:41:00,54.3,50.9,30.23,SE,142,0.0,1.0,88,0.00,,,0.07,meteohub,2013-06-29 11:41:00,
2013-06-29 04:46:00,54.3,50.9,30.23,SE,142,0.0,1.0,88,0.00,,,0.07,meteohub,2013-06-29 11:46:00,
2013-06-29 04:51:00,54.3,50.9,30.23,SSE,152,0.0,1.0,88,0.00,,,0.07,meteohub,2013-06-29 11:51:00,
2013-06-29 04:56:00,54.1,50.7,30.23,SSE,147,1.0,1.0,88,0.00,,,0.07,meteohub,2013-06-29 11:56:00,
2013-06-29 05:01:00,54.0,50.5,30.23,SSE,148,0.0,2.0,88,0.00,,,0.07,meteohub,2013-06-29 12:01:00,
2013-06-29 05:07:00,53.8,50.4,30.23,SSE,148,0.0,2.0,88,0.00,,,0.07,meteohub,2013-06-29 12:07:00,
2013-06-29 05:12:00,53.8,50.4,30.23,SSE,155,0.0,2.0,88,0.00,,,0.07,meteohub,2013-06-29 12:12:00,
2013-06-29 05:17:00,53.8,50.4,30.23,SSE,165,0.0,0.0,88,0.00,,,0.07,meteohub,2013-06-29 12:17:00,
2013-06-29 05:22:00,54.0,50.5,30.24,SSE,164,0.0,0.0,88,0.00,,,0.07,meteohub,2013-06-29 12:22:00,
2013-06-29 05:27:00,54.0,50.5,30.24,SSE,151,0.0,0.0,88,0.00,,,0.07,meteohub,2013-06-29 12:27:00,
2013-06-29 05:32:00,53.8,50.4,30.24,SSE,165,1.0,1.0,88,0.00,,,0.07,meteohub,2013-06-29 12:32:00,
2013-06-29 05:37:00,53.6,50.2,30.24,SSE,153,0.0,1.0,88,0.00,,,0.07,meteohub,2013-06-29 12:37:00,
2013-06-29 05:42:00,53.4,50.0,30.24,SSE,153,0.0,1.0,88,0.00,,,0.07,meteohub,2013-06-29 12:42:00,
2013-06-29 05:47:00,53.4,50.0,30.24,SSE,153,0.0,1.0,88,0.00,,,0.07,meteohub,2013-06-29 12:47:00,
2013-06-29 05:52:00,53.2,49.8,30.24,South,169,0.0,0.0,88,0.00,,,0.07,meteohub,2013-06-29 12:52:00,
2013-06-29 05:57:00,53.1,49.8,30.23,South,169,0.0,1.0,89,0.00,,,0.07,meteohub,2013-06-29 12:57:00,
2013-06-29 06:02:00,53.1,49.8,30.24,SSE,153,0.0,1.0,89,0.00,,,0.07,meteohub,2013-06-29 13:02:00,
2013-06-29 06:07:00,53.8,50.4,30.24,SSE,153,0.0,1.0,88,0.00,,,0.07,meteohub,2013-06-29 13:07:00,
2013-06-29 06:12:00,54.9,50.4,30.24,SE,146,1.0,1.0,85,0.00,,,0.07,meteohub,2013-06-29 13:12:00,
2013-06-29 06:17:00,55.9,50.9,30.23,SE,144,1.0,2.0,83,0.00,,,0.07,meteohub,2013-06-29 13:17:00,
2013-06-29 06:22:00,55.9,50.5,30.23,SE,144,0.0,2.0,82,0.00,,,0.07,meteohub,2013-06-29 13:22:00,
2013-06-29 06:27:00,56.1,50.7,30.23,SE,144,0.0,2.0,82,0.00,,,0.07,meteohub,2013-06-29 13:27:00,
2013-06-29 06:32:00,57.2,51.1,30.23,SE,144,1.0,2.0,80,0.00,,,0.07,meteohub,2013-06-29 13:32:00,
2013-06-29 06:37:00,58.3,51.4,30.23,SSE,148,0.0,1.0,78,0.00,,,0.07,meteohub,2013-06-29 13:37:00,
2013-06-29 06:42:00,59.2,51.6,30.23,SE,126,0.0,1.0,76,0.00,,,0.07,meteohub,2013-06-29 13:42:00,
2013-06-29 06:48:00,59.7,51.8,30.23,SSE,150,0.0,1.0,75,0.00,,,0.07,meteohub,2013-06-29 13:48:00,
2013-06-29 06:53:00,60.3,52.3,30.23,SSE,151,0.0,1.0,75,0.00,,,0.07,meteohub,2013-06-29 13:53:00,
2013-06-29 06:58:00,60.8,52.5,30.23,ESE,122,0.0,1.0,74,0.00,,,0.07,meteohub,2013-06-29 13:58:00,
2013-06-29 07:03:00,61.2,52.5,30.22,ESE,122,0.0,1.0,73,0.00,,,0.07,meteohub,2013-06-29 14:03:00,
2013-06-29 07:08:00,61.5,52.7,30.22,ESE,122,0.0,1.0,73,0.00,,,0.07,meteohub,2013-06-29 14:08:00,
2013-06-29 07:13:00,62.2,52.3,30.22,ESE,123,0.0,1.0,70,0.00,,,0.07,meteohub,2013-06-29 14:13:00,
2013-06-29 07:18:00,63.0,53.4,30.22,ESE,123,0.0,1.0,71,0.00,,,0.07,meteohub,2013-06-29 14:18:00,
2013-06-29 07:23:00,62.6,53.1,30.22,NNW,347,1.0,0.0,71,0.00,,,0.07,meteohub,2013-06-29 14:23:00,
2013-06-29 07:28:00,61.7,52.5,30.22,NE,42,3.0,3.0,72,0.00,,,0.07,meteohub,2013-06-29 14:28:00,
2013-06-29 07:33:00,61.2,52.9,30.22,NE,50,0.0,4.0,74,0.00,,,0.07,meteohub,2013-06-29 14:33:00,
2013-06-29 07:38:00,61.3,53.8,30.23,NE,51,3.0,4.0,76,0.00,,,0.07,meteohub,2013-06-29 14:38:00,
2013-06-29 07:43:00,60.8,54.3,30.23,NE,49,0.0,4.0,79,0.00,,,0.07,meteohub,2013-06-29 14:43:00,
2013-06-29 07:48:00,60.6,55.0,30.23,NE,44,2.0,5.0,82,0.00,,,0.07,meteohub,2013-06-29 14:48:00,
2013-06-29 07:53:00,60.6,54.7,30.23,NNW,339,1.0,5.0,81,0.00,,,0.07,meteohub,2013-06-29 14:53:00,
2013-06-29 07:58:00,61.2,55.2,30.23,NW,319,2.0,5.0,81,0.00,,,0.07,meteohub,2013-06-29 14:58:00,
2013-06-29 08:03:00,61.2,55.6,30.23,NNW,327,4.0,5.0,82,0.00,,,0.07,meteohub,2013-06-29 15:03:00,
2013-06-29 08:08:00,61.2,56.3,30.23,NW,324,3.0,5.0,84,0.00,,,0.07,meteohub,2013-06-29 15:08:00,
2013-06-29 08:13:00,61.0,55.8,30.23,NW,322,3.0,5.0,83,0.00,,,0.07,meteohub,2013-06-29 15:13:00,
2013-06-29 08:18:00,61.2,55.9,30.23,NW,319,1.0,6.0,83,0.00,,,0.07,meteohub,2013-06-29 15:18:00,
2013-06-29 08:23:00,61.3,55.4,30.23,NNW,330,1.0,6.0,81,0.00,,,0.07,meteohub,2013-06-29 15:23:00,
2013-06-29 08:28:00,61.9,55.9,30.23,NNW,330,0.0,6.0,81,0.00,,,0.07,meteohub,2013-06-29 15:28:00,
2013-06-29 08:34:00,63.1,55.8,30.24,NNW,330,0.0,3.0,77,0.00,,,0.07,meteohub,2013-06-29 15:34:00,
2013-06-29 08:39:00,64.0,56.7,30.23,NNW,329,0.0,2.0,77,0.00,,,0.07,meteohub,2013-06-29 15:39:00,
2013-06-29 08:44:00,64.2,56.5,30.23,NNW,330,0.0,1.0,76,0.00,,,0.07,meteohub,2013-06-29 15:44:00,
2013-06-29 08:49:00,64.2,56.5,30.22,NNW,330,0.0,1.0,76,0.00,,,0.07,meteohub,2013-06-29 15:49:00,
2013-06-29 08:54:00,64.6,56.5,30.22,NNW,330,0.0,1.0,75,0.00,,,0.07,meteohub,2013-06-29 15:54:00,
2013-06-29 08:59:00,65.3,56.8,30.22,NNW,329,1.0,0.0,74,0.00,,,0.07,meteohub,2013-06-29 15:59:00,
2013-06-29 09:04:00,64.8,55.6,30.22,NNW,329,2.0,0.0,72,0.00,,,0.07,meteohub,2013-06-29 16:04:00,
2013-06-29 09:09:00,63.0,55.6,30.22,NNW,327,2.0,3.0,77,0.00,,,0.07,meteohub,2013-06-29 16:09:00,
2013-06-29 09:14:00,62.1,55.4,30.22,NNE,15,2.0,3.0,79,0.00,,,0.07,meteohub,2013-06-29 16:14:00,
2013-06-29 09:19:00,62.1,56.5,30.22,NNE,26,2.0,3.0,82,0.00,,,0.07,meteohub,2013-06-29 16:19:00,
2013-06-29 09:24:00,62.1,56.5,30.21,NNE,24,2.0,3.0,82,0.00,,,0.07,meteohub,2013-06-29 16:24:00,
2013-06-29 09:29:00,61.9,56.3,30.21,NNW,342,2.0,3.0,82,0.00,,,0.07,meteohub,2013-06-29 16:29:00,
2013-06-29 09:34:00,61.3,56.1,30.21,NNW,340,2.0,3.0,83,0.00,,,0.07,meteohub,2013-06-29 16:34:00,
2013-06-29 09:39:00,61.5,56.7,30.21,NNE,22,1.0,3.0,84,0.00,,,0.07,meteohub,2013-06-29 16:39:00,
2013-06-29 09:44:00,62.2,57.0,30.21,NNE,23,1.0,3.0,83,0.00,,,0.07,meteohub,2013-06-29 16:44:00,
2013-06-29 09:50:00,62.8,56.8,30.21,NNE,27,1.0,2.0,81,0.00,,,0.07,meteohub,2013-06-29 16:50:00,
2013-06-29 09:55:00,63.0,56.7,30.21,NNE,26,1.0,2.0,80,0.00,,,0.07,meteohub,2013-06-29 16:55:00,
2013-06-29 10:00:00,62.8,56.5,30.20,NNE,26,0.0,2.0,80,0.00,,,0.07,meteohub,2013-06-29 17:00:00,
2013-06-29 10:05:00,63.0,56.7,30.20,NNE,26,1.0,1.0,80,0.00,,,0.07,meteohub,2013-06-29 17:05:00,
2013-06-29 10:10:00,63.0,56.3,30.20,NNW,342,0.0,2.0,79,0.00,,,0.07,meteohub,2013-06-29 17:10:00,
2013-06-29 10:15:00,63.0,56.3,30.20,NNW,342,1.0,2.0,79,0.00,,,0.07,meteohub,2013-06-29 17:15:00,
2013-06-29 10:20:00,63.0,56.7,30.20,NNW,335,1.0,2.0,80,0.00,,,0.07,meteohub,2013-06-29 17:20:00,
2013-06-29 10:25:00,63.1,56.8,30.20,NNW,327,3.0,3.0,80,0.00,,,0.07,meteohub,2013-06-29 17:25:00,
2013-06-29 10:30:00,62.8,56.8,30.20,NW,322,3.0,4.0,81,0.00,,,0.07,meteohub,2013-06-29 17:30:00,
2013-06-29 10:35:00,62.4,56.5,30.20,NW,323,3.0,4.0,81,0.00,,,0.07,meteohub,2013-06-29 17:35:00,
2013-06-29 10:40:00,62.2,56.7,30.20,NNW,329,3.0,4.0,82,0.00,,,0.07,meteohub,2013-06-29 17:40:00,
2013-06-29 10:45:00,62.2,56.7,30.20,NNW,339,3.0,4.0,82,0.00,,,0.07,meteohub,2013-06-29 17:45:00,
2013-06-29 10:50:00,62.4,57.2,30.20,NNW,342,2.0,4.0,83,0.00,,,0.07,meteohub,2013-06-29 17:50:00,
2013-06-29 10:55:00,63.0,57.7,30.20,NNW,342,3.0,3.0,83,0.00,,,0.07,meteohub,2013-06-29 17:55:00,
2013-06-29 11:01:00,63.0,57.0,30.20,NNW,348,3.0,3.0,81,0.00,,,0.07,meteohub,2013-06-29 18:01:00,
2013-06-29 11:06:00,63.0,56.3,30.20,NNW,340,2.0,3.0,79,0.00,,,0.07,meteohub,2013-06-29 18:06:00,
2013-06-29 11:11:00,63.1,57.2,30.20,North,5,2.0,3.0,81,0.00,,,0.07,meteohub,2013-06-29 18:11:00,
2013-06-29 11:16:00,63.5,57.2,30.20,NNE,15,2.0,3.0,80,0.00,,,0.07,meteohub,2013-06-29 18:16:00,
2013-06-29 11:21:00,63.9,57.6,30.20,NNE,20,1.0,3.0,80,0.00,,,0.07,meteohub,2013-06-29 18:21:00,
2013-06-29 11:26:00,64.0,57.4,30.20,NNW,342,2.0,3.0,79,0.00,,,0.07,meteohub,2013-06-29 18:26:00,
2013-06-29 11:31:00,64.6,57.9,30.20,NNW,336,1.0,3.0,79,0.00,,,0.07,meteohub,2013-06-29 18:31:00,
2013-06-29 11:36:00,64.6,57.2,30.20,NNE,12,2.0,2.0,77,0.00,,,0.07,meteohub,2013-06-29 18:36:00,
2013-06-29 11:41:00,65.1,58.1,30.20,NNE,32,1.0,2.0,78,0.00,,,0.07,meteohub,2013-06-29 18:41:00,
2013-06-29 11:46:00,65.3,56.8,30.20,North,349,1.0,2.0,74,0.00,,,0.07,meteohub,2013-06-29 18:46:00,
2013-06-29 11:51:00,64.9,56.5,30.20,NNW,340,1.0,2.0,74,0.00,,,0.07,meteohub,2013-06-29 18:51:00,
2013-06-29 11:56:00,65.1,57.4,30.19,NNE,30,1.0,2.0,76,0.00,,,0.07,meteohub,2013-06-29 18:56:00,
2013-06-29 12:01:00,65.5,57.0,30.20,NNE,17,1.0,2.0,74,0.00,,,0.07,meteohub,2013-06-29 19:01:00,
2013-06-29 12:06:00,65.5,57.0,30.19,NNE,15,1.0,2.0,74,0.00,,,0.07,meteohub,2013-06-29 19:06:00,
2013-06-29 12:11:00,65.5,56.3,30.19,NNW,333,1.0,2.0,72,0.00,,,0.07,meteohub,2013-06-29 19:11:00,
2013-06-29 12:17:00,65.5,57.0,30.19,NNW,329,2.0,2.0,74,0.00,,,0.07,meteohub,2013-06-29 19:17:00,
2013-06-29 12:22:00,65.5,57.4,30.19,NNW,329,1.0,3.0,75,0.00,,,0.07,meteohub,2013-06-29 19:22:00,
2013-06-29 12:27:00,65.7,57.2,30.19,NNW,334,2.0,3.0,74,0.00,,,0.07,meteohub,2013-06-29 19:27:00,
2013-06-29 12:32:00,65.7,57.2,30.19,NNW,333,1.0,3.0,74,0.00,,,0.07,meteohub,2013-06-29 19:32:00,
2013-06-29 12:37:00,65.7,57.2,30.19,NNW,333,2.0,2.0,74,0.00,,,0.07,meteohub,2013-06-29 19:37:00,
2013-06-29 12:42:00,65.8,57.4,30.19,NNW,333,1.0,2.0,74,0.00,,,0.07,meteohub,2013-06-29 19:42:00,
2013-06-29 12:47:00,66.0,57.6,30.19,NNW,333,1.0,2.0,74,0.00,,,0.07,meteohub,2013-06-29 19:47:00,
2013-06-29 12:52:00,66.2,57.2,30.18,NNW,333,1.0,2.0,73,0.00,,,0.07,meteohub,2013-06-29 19:52:00,
2013-06-29 12:57:00,66.4,57.4,30.18,NNW,334,1.0,2.0,73,0.00,,,0.07,meteohub,2013-06-29 19:57:00,
2013-06-29 13:02:00,66.6,57.2,30.18,NNW,333,0.0,2.0,72,0.00,,,0.07,meteohub,2013-06-29 20:02:00,
2013-06-29 13:07:00,67.1,57.4,30.18,NNW,344,0.0,2.0,71,0.00,,,0.07,meteohub,2013-06-29 20:07:00,
2013-06-29 13:12:00,67.5,58.5,30.18,NNE,24,1.0,2.0,73,0.00,,,0.07,meteohub,2013-06-29 20:12:00,
2013-06-29 13:17:00,68.2,57.6,30.18,NNE,17,1.0,2.0,69,0.00,,,0.07,meteohub,2013-06-29 20:17:00,
2013-06-29 13:22:00,68.4,56.5,30.18,NNE,17,1.0,2.0,66,0.00,,,0.07,meteohub,2013-06-29 20:22:00,
2013-06-29 13:28:00,68.9,56.3,30.18,NNW,336,1.0,2.0,64,0.00,,,0.07,meteohub,2013-06-29 20:28:00,
2013-06-29 13:33:00,69.1,55.6,30.18,NNW,337,1.0,1.0,62,0.00,,,0.07,meteohub,2013-06-29 20:33:00,
2013-06-29 13:38:00,69.3,56.1,30.18,NNW,337,0.0,1.0,63,0.00,,,0.07,meteohub,2013-06-29 20:38:00,
2013-06-29 13:43:00,69.6,55.9,30.18,NNW,336,1.0,1.0,62,0.00,,,0.07,meteohub,2013-06-29 20:43:00,
2013-06-29 13:48:00,69.8,56.7,30.18,NNW,337,0.0,1.0,63,0.00,,,0.07,meteohub,2013-06-29 20:48:00,
2013-06-29 13:53:00,69.6,55.0,30.18,NNW,335,1.0,1.0,60,0.00,,,0.07,meteohub,2013-06-29 20:53:00,
2013-06-29 13:58:00,69.6,58.1,30.17,NNW,335,1.0,1.0,67,0.00,,,0.07,meteohub,2013-06-29 20:58:00,
2013-06-29 14:03:00,69.6,56.8,30.17,NNW,329,2.0,2.0,64,0.00,,,0.07,meteohub,2013-06-29 21:03:00,
2013-06-29 14:08:00,70.2,58.6,30.17,NNW,340,2.0,2.0,67,0.00,,,0.07,meteohub,2013-06-29 21:08:00,
2013-06-29 14:13:00,70.3,57.2,30.17,NNW,336,1.0,2.0,63,0.00,,,0.07,meteohub,2013-06-29 21:13:00,
2013-06-29 14:18:00,70.5,59.9,30.17,NNW,336,1.0,2.0,69,0.00,,,0.07,meteohub,2013-06-29 21:18:00,
2013-06-29 14:23:00,70.7,59.2,30.17,NNW,340,1.0,2.0,67,0.00,,,0.07,meteohub,2013-06-29 21:23:00,
2013-06-29 14:28:00,70.7,59.5,30.17,NNW,340,1.0,2.0,68,0.00,,,0.07,meteohub,2013-06-29 21:28:00,
2013-06-29 14:33:00,70.3,59.7,30.17,NNW,340,1.0,2.0,69,0.00,,,0.07,meteohub,2013-06-29 21:33:00,
2013-06-29 14:38:00,70.7,60.4,30.16,NNE,17,1.0,2.0,70,0.00,,,0.07,meteohub,2013-06-29 21:38:00,
2013-06-29 14:44:00,71.4,59.5,30.16,NNE,23,1.0,2.0,66,0.00,,,0.07,meteohub,2013-06-29 21:44:00,
2013-06-29 14:49:00,71.6,60.4,30.16,NNE,28,1.0,2.0,68,0.00,,,0.07,meteohub,2013-06-29 21:49:00,
2013-06-29 14:54:00,71.6,59.7,30.16,NNE,32,2.0,2.0,66,0.00,,,0.07,meteohub,2013-06-29 21:54:00,
2013-06-29 14:59:00,71.2,59.4,30.16,NE,46,2.0,2.0,66,0.00,,,0.07,meteohub,2013-06-29 21:59:00,
2013-06-29 15:04:00,71.1,59.5,30.16,NE,44,2.0,2.0,67,0.00,,,0.07,meteohub,2013-06-29 22:04:00,
2013-06-29 15:09:00,71.1,60.4,30.16,NE,39,1.0,2.0,69,0.00,,,0.07,meteohub,2013-06-29 22:09:00,
2013-06-29 15:14:00,71.2,59.4,30.15,NE,38,1.0,2.0,66,0.00,,,0.07,meteohub,2013-06-29 22:14:00,
2013-06-29 15:19:00,72.1,57.6,30.15,NNE,33,1.0,2.0,60,0.00,,,0.07,meteohub,2013-06-29 22:19:00,
2013-06-29 15:24:00,73.0,57.9,30.15,NNE,30,2.0,2.0,59,0.00,,,0.07,meteohub,2013-06-29 22:24:00,
2013-06-29 15:29:00,73.2,60.3,30.15,NNE,32,1.0,2.0,64,0.00,,,0.07,meteohub,2013-06-29 22:29:00,
2013-06-29 15:34:00,73.9,52.5,30.15,NNE,26,0.0,2.0,47,0.00,,,0.07,meteohub,2013-06-29 22:34:00,
2013-06-29 15:39:00,75.0,45.5,30.15,NNE,26,1.0,2.0,35,0.00,,,0.07,meteohub,2013-06-29 22:39:00,
2013-06-29 15:44:00,75.9,50.5,30.15,NE,35,1.0,2.0,41,0.00,,,0.07,meteohub,2013-06-29 22:44:00,
2013-06-29 15:49:00,76.6,46.2,30.15,NE,35,1.0,2.0,34,0.00,,,0.07,meteohub,2013-06-29 22:49:00,
2013-06-29 15:54:00,76.8,47.8,30.15,NE,35,1.0,2.0,36,0.00,,,0.07,meteohub,2013-06-29 22:54:00,
2013-06-29 15:59:00,76.5,50.4,30.15,NNE,15,1.0,2.0,40,0.00,,,0.07,meteohub,2013-06-29 22:59:00,
2013-06-29 16:04:00,76.3,52.7,30.14,NNE,30,1.0,2.0,44,0.00,,,0.07,meteohub,2013-06-29 23:04:00,
2013-06-29 16:10:00,75.9,54.9,30.14,NE,38,2.0,2.0,48,0.00,,,0.07,meteohub,2013-06-29 23:10:00,
2013-06-29 16:15:00,75.9,56.5,30.14,NE,35,0.0,2.0,51,0.00,,,0.07,meteohub,2013-06-29 23:15:00,
2013-06-29 16:20:00,75.9,56.5,30.14,NNE,32,2.0,2.0,51,0.00,,,0.07,meteohub,2013-06-29 23:20:00,
2013-06-29 16:25:00,75.6,56.7,30.14,North,351,1.0,3.0,52,0.00,,,0.07,meteohub,2013-06-29 23:25:00,
2013-06-29 16:30:00,75.6,50.9,30.14,NNE,32,4.0,4.0,42,0.00,,,0.07,meteohub,2013-06-29 23:30:00,
2013-06-29 16:35:00,75.7,52.9,30.14,NNW,344,1.0,6.0,45,0.00,,,0.07,meteohub,2013-06-29 23:35:00,
2013-06-29 16:40:00,75.9,52.5,30.14,NE,50,3.0,6.0,44,0.00,,,0.07,meteohub,2013-06-29 23:40:00,
2013-06-29 16:45:00,75.4,55.9,30.14,NW,315,1.0,5.0,51,0.00,,,0.07,meteohub,2013-06-29 23:45:00,
2013-06-29 16:50:00,74.7,57.9,30.14,NE,35,3.0,5.0,56,0.00,,,0.07,meteohub,2013-06-29 23:50:00,
2013-06-29 16:55:00,73.9,56.8,30.13,NNE,30,3.0,4.0,55,0.00,,,0.07,meteohub,2013-06-29 23:55:00,
2013-06-29 17:00:00,73.6,56.8,30.13,NE,39,5.0,5.0,56,0.00,,,0.07,meteohub,2013-06-30 00:00:00,
2013-06-29 17:05:00,73.0,57.4,30.13,NNE,27,4.0,6.0,58,0.00,,,0.00,meteohub,2013-06-30 00:05:00,
2013-06-29 17:10:00,72.9,56.7,30.13,NE,35,3.0,6.0,57,0.00,,,0.00,meteohub,2013-06-30 00:10:00,
2013-06-29 17:15:00,72.9,55.8,30.12,NE,39,4.0,6.0,55,0.00,,,0.00,meteohub,2013-06-30 00:15:00,
2013-06-29 17:20:00,72.9,57.7,30.12,NNE,16,3.0,5.0,59,0.00,,,0.00,meteohub,2013-06-30 00:20:00,
2013-06-29 17:26:00,72.7,57.6,30.10,NNE,17,3.0,5.0,59,0.00,,,0.00,meteohub,2013-06-30 00:26:00,
2013-06-29 17:31:00,73.0,57.9,30.07,NE,38,3.0,4.0,59,0.00,,,0.00,meteohub,2013-06-30 00:31:00,
2013-06-29 17:36:00,72.9,57.7,30.11,NE,39,3.0,3.0,59,0.00,,,0.00,meteohub,2013-06-30 00:36:00,
2013-06-29 17:41:00,73.0,56.5,30.11,NE,49,3.0,4.0,56,0.00,,,0.00,meteohub,2013-06-30 00:41:00,
2013-06-29 17:46:00,73.9,55.8,30.12,NE,49,2.0,4.0,53,0.00,,,0.00,meteohub,2013-06-30 00:46:00,
2013-06-29 17:51:00,74.7,53.6,30.12,NE,34,1.0,4.0,48,0.00,,,0.00,meteohub,2013-06-30 00:51:00,
2013-06-29 17:56:00,75.0,55.0,30.12,NE,39,2.0,4.0,50,0.00,,,0.00,meteohub,2013-06-30 00:56:00,
2013-06-29 18:01:00,74.7,57.4,30.12,NE,53,2.0,4.0,55,0.00,,,0.00,meteohub,2013-06-30 01:01:00,
2013-06-29 18:06:00,73.9,57.7,30.12,NE,46,3.0,4.0,57,0.00,,,0.00,meteohub,2013-06-30 01:06:00,
2013-06-29 18:11:00,73.0,59.2,30.12,NE,44,3.0,5.0,62,0.00,,,0.00,meteohub,2013-06-30 01:11:00,
2013-06-29 18:16:00,72.1,60.6,30.11,North,355,4.0,5.0,67,0.00,,,0.00,meteohub,2013-06-30 01:16:00,
2013-06-29 18:21:00,72.0,59.9,30.11,NNW,340,2.0,5.0,66,0.00,,,0.00,meteohub,2013-06-30 01:21:00,
2013-06-29 18:26:00,72.1,59.7,30.12,NNW,331,2.0,4.0,65,0.00,,,0.00,meteohub,2013-06-30 01:26:00,
2013-06-29 18:31:00,72.1,59.7,30.12,NNW,330,1.0,4.0,65,0.00,,,0.00,meteohub,2013-06-30 01:31:00,
2013-06-29 18:36:00,72.9,59.5,30.12,NNW,336,1.0,3.0,63,0.00,,,0.00,meteohub,2013-06-30 01:36:00,
2013-06-29 18:41:00,72.9,59.5,30.12,NW,319,1.0,3.0,63,0.00,,,0.00,meteohub,2013-06-30 01:41:00,
2013-06-29 18:46:00,72.9,59.5,30.12,NW,322,0.0,3.0,63,0.00,,,0.00,meteohub,2013-06-30 01:46:00,
2013-06-29 18:51:00,73.6,59.4,30.12,NNW,333,0.0,3.0,61,0.00,,,0.00,meteohub,2013-06-30 01:51:00,
2013-06-29 18:56:00,73.9,57.2,30.12,NNW,333,0.0,2.0,56,0.00,,,0.00,meteohub,2013-06-30 01:56:00,
2013-06-29 19:01:00,74.3,59.0,30.12,NNW,333,0.0,1.0,59,0.00,,,0.00,meteohub,2013-06-30 02:01:00,
2013-06-29 19:07:00,74.7,54.9,30.12,SSW,196,0.0,1.0,50,0.00,,,0.00,meteohub,2013-06-30 02:07:00,
2013-06-29 19:12:00,75.0,51.6,30.12,SSE,160,0.0,2.0,44,0.00,,,0.00,meteohub,2013-06-30 02:12:00,
2013-06-29 19:17:00,75.0,52.2,30.12,NE,42,3.0,3.0,45,0.00,,,0.00,meteohub,2013-06-30 02:17:00,
2013-06-29 19:22:00,75.0,55.0,30.12,NE,46,3.0,8.0,50,0.00,,,0.00,meteohub,2013-06-30 02:22:00,
2013-06-29 19:27:00,74.8,55.6,30.13,NE,46,0.0,8.0,51,0.00,,,0.00,meteohub,2013-06-30 02:27:00,
2013-06-29 19:32:00,74.3,57.0,30.13,NE,46,2.0,8.0,55,0.00,,,0.00,meteohub,2013-06-30 02:32:00,
2013-06-29 19:37:00,73.9,54.7,30.13,NE,46,1.0,4.0,51,0.00,,,0.00,meteohub,2013-06-30 02:37:00,
2013-06-29 19:42:00,73.6,55.9,30.13,NE,46,0.0,4.0,54,0.00,,,0.00,meteohub,2013-06-30 02:42:00,
2013-06-29 19:47:00,73.9,53.1,30.13,NE,54,1.0,4.0,48,0.00,,,0.00,meteohub,2013-06-30 02:47:00,
2013-06-29 19:52:00,74.1,55.4,30.13,NE,53,1.0,3.0,52,0.00,,,0.00,meteohub,2013-06-30 02:52:00,
2013-06-29 19:57:00,74.5,52.9,30.13,NE,53,0.0,3.0,47,0.00,,,0.00,meteohub,2013-06-30 02:57:00,
2013-06-29 20:02:00,74.5,57.7,30.13,NE,53,0.0,3.0,56,0.00,,,0.00,meteohub,2013-06-30 03:02:00,
2013-06-29 20:07:00,73.8,57.0,30.12,NE,53,0.0,3.0,56,0.00,,,0.00,meteohub,2013-06-30 03:07:00,
2013-06-29 20:12:00,73.2,53.4,30.12,NE,51,1.0,2.0,50,0.00,,,0.00,meteohub,2013-06-30 03:12:00,
2013-06-29 20:17:00,73.8,51.6,30.12,NE,50,2.0,3.0,46,0.00,,,0.00,meteohub,2013-06-30 03:17:00,
2013-06-29 20:18:00,73.8,51.1,30.12,NE,51,1.0,3.0,45,0.00,,,0.00,meteohub,2013-06-30 03:18:00,
2013-06-29 20:23:00,73.9,51.3,30.13,ESE,109,0.0,3.0,45,0.00,,,0.00,meteohub,2013-06-30 03:23:00,
2013-06-29 20:28:00,73.8,49.8,30.13,ESE,121,1.0,3.0,43,0.00,,,0.00,meteohub,2013-06-30 03:28:00,
2013-06-29 20:33:00,73.9,50.7,30.13,ESE,112,0.0,2.0,44,0.00,,,0.00,meteohub,2013-06-30 03:33:00,
2013-06-29 20:38:00,73.6,51.4,30.13,ESE,112,0.0,2.0,46,0.00,,,0.00,meteohub,2013-06-30 03:38:00,
2013-06-29 20:43:00,73.0,51.1,30.13,SE,144,0.0,2.0,46,0.00,,,0.00,meteohub,2013-06-30 03:43:00,
2013-06-29 20:48:00,72.3,52.2,30.13,SSE,167,0.0,1.0,49,0.00,,,0.00,meteohub,2013-06-30 03:48:00,
2013-06-29 20:53:00,71.6,52.5,30.13,South,186,1.0,1.0,51,0.00,,,0.00,meteohub,2013-06-30 03:53:00,
2013-06-29 20:58:00,71.1,53.6,30.13,SSE,153,1.0,2.0,54,0.00,,,0.00,meteohub,2013-06-30 03:58:00,
2013-06-29 21:01:00,70.5,53.6,30.13,SSE,153,1.0,2.0,55,0.00,,,0.00,meteohub,2013-06-30 04:01:00,
2013-06-29 21:02:00,70.5,53.6,30.13,SSE,153,0.0,2.0,55,0.00,,,0.00,meteohub,2013-06-30 04:02:00,
2013-06-29 21:07:00,70.0,53.6,30.13,SSE,148,2.0,2.0,56,0.00,,,0.00,meteohub,2013-06-30 04:07:00,
2013-06-29 21:13:00,69.4,53.6,30.13,SSE,149,0.0,2.0,57,0.00,,,0.00,meteohub,2013-06-30 04:13:00,
2013-06-29 21:18:00,69.1,53.6,30.13,SSE,157,0.0,2.0,58,0.00,,,0.00,meteohub,2013-06-30 04:18:00,
2013-06-29 21:23:00,68.5,53.6,30.14,SSE,159,0.0,2.0,59,0.00,,,0.00,meteohub,2013-06-30 04:23:00,
2013-06-29 21:28:00,68.4,54.0,30.14,SE,146,0.0,1.0,60,0.00,,,0.00,meteohub,2013-06-30 04:28:00,
2013-06-29 21:33:00,68.2,53.2,30.14,SSE,150,0.0,1.0,59,0.00,,,0.00,meteohub,2013-06-30 04:33:00,
2013-06-29 21:38:00,68.0,53.6,30.14,SSE,157,1.0,1.0,60,0.00,,,0.00,meteohub,2013-06-30 04:38:00,
2013-06-29 21:43:00,67.6,53.8,30.14,SSE,150,0.0,1.0,61,0.00,,,0.00,meteohub,2013-06-30 04:43:00,
2013-06-29 21:48:00,67.3,53.4,30.14,SSE,150,0.0,1.0,61,0.00,,,0.00,meteohub,2013-06-30 04:48:00,
2013-06-29 21:53:00,66.9,53.4,30.15,SSE,150,0.0,1.0,62,0.00,,,0.00,meteohub,2013-06-30 04:53:00,
2013-06-29 21:58:00,66.6,53.1,30.15,SSE,151,1.0,1.0,62,0.00,,,0.00,meteohub,2013-06-30 04:58:00,
2013-06-29 22:03:00,66.2,52.9,30.15,SSE,153,0.0,1.0,62,0.00,,,0.00,meteohub,2013-06-30 05:03:00,
2013-06-29 22:08:00,66.0,52.7,30.15,SE,138,1.0,1.0,62,0.00,,,0.00,meteohub,2013-06-30 05:08:00,
2013-06-29 22:13:00,65.8,53.8,30.15,SE,144,0.0,1.0,65,0.00,,,0.00,meteohub,2013-06-30 05:13:00,
2013-06-29 22:18:00,65.8,55.0,30.15,SE,142,0.0,1.0,68,0.00,,,0.00,meteohub,2013-06-30 05:18:00,
2013-06-29 22:23:00,65.5,53.1,30.15,SE,141,0.0,1.0,64,0.00,,,0.00,meteohub,2013-06-30 05:23:00,
2013-06-29 22:28:00,65.1,52.2,30.16,SE,142,0.0,1.0,63,0.00,,,0.00,meteohub,2013-06-30 05:28:00,
2013-06-29 22:33:00,64.9,52.5,30.16,SE,142,1.0,1.0,64,0.00,,,0.00,meteohub,2013-06-30 05:33:00,
2013-06-29 22:38:00,64.8,52.3,30.16,SSE,150,0.0,1.0,64,0.00,,,0.00,meteohub,2013-06-30 05:38:00,
2013-06-29 22:43:00,64.6,52.2,30.16,SSE,152,1.0,1.0,64,0.00,,,0.00,meteohub,2013-06-30 05:43:00,
2013-06-29 22:48:00,64.2,51.8,30.16,SE,144,0.0,2.0,64,0.00,,,0.00,meteohub,2013-06-30 05:48:00,
2013-06-29 22:53:00,64.0,52.0,30.16,SE,144,0.0,2.0,65,0.00,,,0.00,meteohub,2013-06-30 05:53:00,
2013-06-29 22:58:00,63.9,52.3,30.16,SE,138,1.0,2.0,66,0.00,,,0.00,meteohub,2013-06-30 05:58:00,
2013-06-29 23:03:00,63.5,52.3,30.16,SE,139,0.0,1.0,67,0.00,,,0.00,meteohub,2013-06-30 06:03:00,
2013-06-29 23:08:00,63.1,52.0,30.16,SE,138,0.0,1.0,67,0.00,,,0.00,meteohub,2013-06-30 06:08:00,
2013-06-29 23:13:00,63.0,52.2,30.17,SE,138,0.0,1.0,68,0.00,,,0.00,meteohub,2013-06-30 06:13:00,
2013-06-29 23:18:00,62.4,51.8,30.16,SE,146,1.0,1.0,68,0.00,,,0.00,meteohub,2013-06-30 06:18:00,
2013-06-29 23:23:00,62.2,51.6,30.16,SE,146,0.0,1.0,68,0.00,,,0.00,meteohub,2013-06-30 06:23:00,
2013-06-29 23:29:00,62.1,51.4,30.16,SSE,166,0.0,1.0,68,0.00,,,0.00,meteohub,2013-06-30 06:29:00,
2013-06-29 23:34:00,62.1,50.5,30.16,SSE,150,0.0,1.0,66,0.00,,,0.00,meteohub,2013-06-30 06:34:00,
2013-06-29 23:39:00,62.1,50.5,30.16,SE,144,1.0,1.0,66,0.00,,,0.00,meteohub,2013-06-30 06:39:00,
2013-06-29 23:44:00,61.9,50.7,30.16,SSE,150,0.0,2.0,67,0.00,,,0.00,meteohub,2013-06-30 06:44:00,
2013-06-29 23:49:00,61.7,50.7,30.16,SSE,152,0.0,2.0,67,0.00,,,0.00,meteohub,2013-06-30 06:49:00,
2013-06-29 23:54:00,61.5,50.5,30.16,SE,128,0.0,2.0,67,0.00,,,0.00,meteohub,2013-06-30 06:54:00,
2013-06-29 23:59:00,61.3,50.4,30.16,SSE,157,0.0,1.0,67,0.00,,,0.00,meteohub,2013-06-30 06:59:00,